Time;durP1;ratioP1;P1;durP2;ratioP2;P2;SDS_P1;SDS_P2;PMS_P1;PMS_P2;Temp;Humidity;BMP_temperature;BMP_pressure;BME280_temperature;BME280_humidity;BME280_pressure;Samples;Min_cycle;Max_cycle;Signal;HPM_P1;HPM_P2
2023/02/20 00:01:30;;;;;;;0.40;0.38;;;21.70;37.00;;;;;;5052680;28;20133;-62
2023/02/20 00:03:57;;;;;;;0.50;0.50;;;21.70;37.00;;;;;;5051556;28;20055;-62
2023/02/20 00:06:24;;;;;;;0.50;0.50;;;21.70;37.00;;;;;;5052742;28;20067;-62
2023/02/20 00:08:52;;;;;;;0.60;0.60;;;21.70;37.00;;;;;;5052826;28;20053;-62
2023/02/20 00:11:19;;;;;;;0.85;0.73;;;21.70;37.00;;;;;;5052387;28;20509;-62
2023/02/20 00:13:47;;;;;;;0.60;0.60;;;21.70;37.00;;;;;;5052065;28;20505;-62
2023/02/20 00:16:15;;;;;;;0.50;0.50;;;21.60;37.60;;;;;;5052760;28;20449;-62
2023/02/20 00:18:43;;;;;;;0.30;0.30;;;21.70;37.10;;;;;;5051813;28;20136;-62
2023/02/20 00:21:10;;;;;;;0.68;0.68;;;21.70;37.10;;;;;;5051924;28;20063;-62
2023/02/20 00:23:38;;;;;;;0.50;0.50;;;21.70;37.10;;;;;;5052280;28;20091;-62
2023/02/20 00:26:09;;;;;;;0.40;0.40;;;21.60;37.00;;;;;;5052625;28;20124;-62
2023/02/20 00:28:38;;;;;;;0.55;0.55;;;21.60;37.00;;;;;;5052305;28;20052;-62
2023/02/20 00:31:06;;;;;;;0.35;0.35;;;21.60;37.00;;;;;;5052090;28;20461;-62
2023/02/20 00:33:35;;;;;;;0.40;0.40;;;21.60;37.00;;;;;;5051668;28;20171;-62
2023/02/20 00:36:03;;;;;;;1.77;0.43;;;21.60;37.00;;;;;;5052044;28;20507;-62
2023/02/20 00:38:30;;;;;;;0.38;0.38;;;21.60;37.00;;;;;;5052353;28;20053;-63
2023/02/20 00:40:57;;;;;;;0.70;0.60;;;21.60;37.00;;;;;;5053299;28;20045;-62
2023/02/20 00:43:25;;;;;;;0.25;0.25;;;21.60;37.00;;;;;;5056064;28;20114;-62
2023/02/20 00:45:52;;;;;;;0.65;0.60;;;21.60;37.00;;;;;;5055061;28;20049;-62
2023/02/20 00:48:19;;;;;;;0.60;0.60;;;21.60;37.00;;;;;;5055776;28;20061;-62
2023/02/20 00:50:46;;;;;;;0.40;0.40;;;21.60;37.00;;;;;;5055609;28;20052;-62
2023/02/20 00:53:13;;;;;;;0.40;0.40;;;21.60;37.00;;;;;;5055480;28;20045;-62
2023/02/20 00:55:40;;;;;;;0.80;0.57;;;21.60;37.00;;;;;;5055527;28;20059;-62
2023/02/20 00:58:07;;;;;;;0.70;0.40;;;21.60;37.10;;;;;;5055919;28;20131;-62
2023/02/20 01:00:34;;;;;;;0.30;0.30;;;21.60;37.10;;;;;;5056255;28;20056;-62
2023/02/20 01:03:02;;;;;;;0.65;0.50;;;21.60;37.10;;;;;;5055174;28;20459;-62
2023/02/20 01:05:29;;;;;;;0.50;0.50;;;21.60;37.00;;;;;;5055158;28;20175;-62
2023/02/20 01:07:56;;;;;;;0.30;0.30;;;21.60;37.00;;;;;;5055750;28;20049;-62
2023/02/20 01:10:23;;;;;;;0.45;0.45;;;21.60;37.10;;;;;;5055767;28;20059;-62
2023/02/20 01:12:50;;;;;;;0.30;0.30;;;21.60;37.00;;;;;;5054725;28;20041;-61
2023/02/20 01:15:17;;;;;;;0.52;0.40;;;21.60;37.00;;;;;;5055586;28;20057;-62
2023/02/20 01:17:46;;;;;;;0.28;0.28;;;21.60;37.60;;;;;;5055015;28;20051;-62
2023/02/20 01:20:13;;;;;;;0.32;0.32;;;21.60;37.00;;;;;;5055030;28;20093;-62
2023/02/20 01:22:40;;;;;;;0.43;0.43;;;21.60;37.00;;;;;;5055381;28;20053;-62
2023/02/20 01:25:07;;;;;;;0.45;0.30;;;21.60;37.00;;;;;;5055314;28;20049;-62
2023/02/20 01:27:34;;;;;;;0.30;0.30;;;21.60;37.10;;;;;;5055182;28;20127;-62
2023/02/20 01:30:02;;;;;;;0.40;0.40;;;21.60;37.00;;;;;;5055167;28;20056;-62
2023/02/20 01:32:29;;;;;;;0.50;0.30;;;21.60;37.00;;;;;;5054415;28;20049;-62
2023/02/20 01:34:56;;;;;;;0.30;0.30;;;21.60;37.10;;;;;;5055267;28;20458;-62
2023/02/20 01:37:23;;;;;;;0.65;0.40;;;21.60;37.10;;;;;;5054494;28;20041;-62
2023/02/20 01:39:51;;;;;;;0.47;0.47;;;21.60;37.10;;;;;;5055146;28;20463;-62
2023/02/20 01:42:21;;;;;;;0.50;0.40;;;21.60;37.10;;;;;;5054862;28;20132;-62
2023/02/20 01:44:51;;;;;;;0.50;0.50;;;21.60;37.10;;;;;;5054800;28;20495;-62
2023/02/20 01:47:21;;;;;;;0.20;0.20;;;21.50;37.00;;;;;;5054700;28;20048;-62
2023/02/20 01:49:54;;;;;;;0.38;0.35;;;21.60;37.10;;;;;;5055047;28;20059;-62
2023/02/20 01:52:26;;;;;;;0.40;0.40;;;21.50;37.00;;;;;;5053033;28;20051;-62
2023/02/20 01:55:13;;;;;;;0.40;0.40;;;21.50;37.00;;;;;;5054315;28;20710;-62
2023/02/20 01:57:47;;;;;;;0.30;0.30;;;21.50;37.00;;;;;;5054677;28;20061;-63
2023/02/20 02:00:18;;;;;;;1.38;0.40;;;21.50;37.00;;;;;;5053583;28;20063;-62
2023/02/20 02:03:01;;;;;;;0.73;0.30;;;21.50;37.00;;;;;;5054647;28;20045;-62
2023/02/20 02:05:29;;;;;;;0.50;0.40;;;21.50;37.60;;;;;;5054373;28;20053;-62
2023/02/20 02:07:58;;;;;;;0.30;0.30;;;21.50;37.00;;;;;;5054084;28;20045;-62
2023/02/20 02:10:33;;;;;;;0.30;0.30;;;21.50;37.00;;;;;;5053959;28;20045;-62
2023/02/20 02:13:01;;;;;;;0.35;0.35;;;21.50;37.00;;;;;;5054015;28;20045;-62
2023/02/20 02:15:29;;;;;;;0.20;0.20;;;21.50;37.10;;;;;;5053366;28;20049;-62
2023/02/20 02:18:29;;;;;;;0.30;0.30;;;21.50;37.10;;;;;;5054098;28;20049;-62
2023/02/20 02:21:36;;;;;;;0.50;0.40;;;21.50;37.10;;;;;;5053909;28;20055;-62
2023/02/20 02:24:43;;;;;;;0.52;0.20;;;21.50;37.10;;;;;;5053973;28;20052;-62
2023/02/20 02:27:45;;;;;;;0.22;0.22;;;21.50;37.10;;;;;;5053423;28;20080;-62
2023/02/20 02:30:45;;;;;;;0.30;0.30;;;21.50;37.10;;;;;;5053805;28;20131;-62
2023/02/20 02:33:32;;;;;;;;;;;21.50;37.10;;;;;;5054268;28;20053;-62
2023/02/20 02:36:28;;;;;;;0.30;0.20;;;21.50;37.10;;;;;;5053895;28;19967;-62
2023/02/20 02:39:26;;;;;;;0.32;0.20;;;21.50;37.10;;;;;;5053951;28;20048;-62
2023/02/20 02:42:22;;;;;;;0.30;0.30;;;21.50;37.10;;;;;;5053003;28;20128;-62
2023/02/20 02:45:07;;;;;;;0.20;0.20;;;21.50;37.10;;;;;;5053503;28;20053;-63
2023/02/20 02:47:45;;;;;;;0.30;0.30;;;21.50;37.10;;;;;;5053831;28;20045;-62
2023/02/20 02:50:24;;;;;;;0.30;0.30;;;21.50;37.10;;;;;;5053590;28;20143;-62
2023/02/20 02:52:52;;;;;;;0.30;0.30;;;21.50;37.10;;;;;;5053380;28;20080;-62
2023/02/20 02:55:26;;;;;;;0.30;0.30;;;21.50;37.10;;;;;;5052135;28;20041;-62
2023/02/20 02:57:54;;;;;;;0.30;0.30;;;21.50;37.10;;;;;;5040828;28;20049;-62
2023/02/20 03:00:25;;;;;;;0.13;0.13;;;21.50;37.10;;;;;;5052784;28;20464;-62
2023/02/20 03:03:18;;;;;;;0.10;0.10;;;21.40;37.10;;;;;;5053386;28;20065;-62
2023/02/20 03:06:08;;;;;;;0.63;0.20;;;21.50;37.20;;;;;;5052019;28;20049;-62
2023/02/20 03:08:43;;;;;;;0.13;0.13;;;21.50;37.10;;;;;;5047251;28;20041;-62
2023/02/20 03:11:17;;;;;;;0.30;0.10;;;21.50;37.10;;;;;;5052992;28;20048;-62
2023/02/20 03:17:09;;;;;;;0.40;0.40;;;21.50;37.10;;;;;;5053051;28;20437;-62
2023/02/20 03:19:41;;;;;;;0.95;0.30;;;21.50;37.10;;;;;;5053258;28;20080;-62
2023/02/20 03:22:16;;;;;;;0.10;0.10;;;21.50;37.10;;;;;;5053153;28;20472;-62
2023/02/20 03:24:55;;;;;;;0.28;0.28;;;21.50;37.00;;;;;;5053192;28;20400;-62
2023/02/20 03:27:37;;;;;;;0.38;0.28;;;21.50;37.00;;;;;;5052040;28;20076;-62
2023/02/20 03:30:27;;;;;;;0.22;0.22;;;21.50;37.00;;;;;;5036127;28;20095;-62
2023/02/20 03:44:20;;;;;;;0.20;0.20;;;21.50;37.00;;;;;;5032884;28;20081;-62
2023/02/20 03:46:49;;;;;;;0.30;0.20;;;21.50;37.00;;;;;;5032772;28;20056;-62
2023/02/20 03:49:20;;;;;;;0.43;0.32;;;21.50;37.00;;;;;;5033862;28;20041;-62
2023/02/20 03:51:47;;;;;;;0.30;0.30;;;21.50;37.00;;;;;;5046634;28;20053;-62
2023/02/20 03:54:15;;;;;;;0.20;0.20;;;21.40;37.00;;;;;;5051410;28;20045;-62
2023/02/20 03:56:51;;;;;;;0.30;0.20;;;21.50;37.00;;;;;;5051328;28;20064;-62
2023/02/20 03:59:27;;;;;;;0.43;0.30;;;21.50;37.00;;;;;;5052516;28;20053;-62
2023/02/20 04:01:58;;;;;;;0.30;0.30;;;21.40;36.90;;;;;;5052391;28;20462;-62
2023/02/20 04:04:32;;;;;;;0.52;0.32;;;21.40;37.00;;;;;;5052824;28;20452;-62
2023/02/20 04:07:01;;;;;;;0.10;0.10;;;21.40;37.00;;;;;;5052395;28;20071;-62
2023/02/20 04:09:32;;;;;;;0.25;0.20;;;21.40;37.00;;;;;;5051883;28;20089;-62
2023/02/20 04:12:14;;;;;;;0.10;0.10;;;21.40;36.90;;;;;;5046639;28;20044;-62
2023/02/20 04:14:42;;;;;;;0.30;0.30;;;21.40;36.90;;;;;;5050213;28;20080;-62
2023/02/20 04:17:15;;;;;;;0.30;0.30;;;21.40;36.90;;;;;;5054620;28;20076;-62
2023/02/20 04:19:42;;;;;;;0.35;0.25;;;21.40;36.90;;;;;;5054595;28;20049;-62
2023/02/20 04:22:16;;;;;;;0.30;0.30;;;21.40;36.90;;;;;;5055896;28;20489;-62
2023/02/20 04:24:55;;;;;;;0.30;0.30;;;21.40;37.40;;;;;;5056085;28;20047;-62
2023/02/20 04:27:22;;;;;;;0.30;0.30;;;21.40;37.50;;;;;;5052892;28;20549;-62
2023/02/20 04:29:49;;;;;;;0.85;0.20;;;21.40;36.90;;;;;;5053324;28;20132;-62
2023/02/20 04:32:16;;;;;;;0.20;0.20;;;21.40;36.90;;;;;;5055688;28;20037;-62
2023/02/20 04:34:44;;;;;;;0.30;0.30;;;21.40;37.00;;;;;;5055773;28;20083;-62
2023/02/20 04:37:13;;;;;;;0.35;0.30;;;21.40;36.90;;;;;;5054530;28;20053;-62
2023/02/20 04:39:40;;;;;;;0.22;0.22;;;21.40;36.90;;;;;;5055406;28;20053;-62
2023/02/20 04:42:08;;;;;;;0.20;0.20;;;21.40;37.00;;;;;;5055907;28;20128;-63
2023/02/20 04:44:35;;;;;;;0.30;0.30;;;21.40;37.00;;;;;;5055840;28;20063;-62
2023/02/20 04:47:06;;;;;;;0.60;0.60;;;21.40;37.00;;;;;;5055644;28;20099;-62
2023/02/20 04:49:33;;;;;;;0.55;0.30;;;21.40;37.00;;;;;;5055921;28;20045;-62
2023/02/20 04:52:00;;;;;;;0.30;0.30;;;21.40;37.00;;;;;;5055701;28;20503;-62
2023/02/20 04:54:28;;;;;;;0.40;0.30;;;21.40;37.00;;;;;;5055982;28;20053;-62
2023/02/20 04:56:55;;;;;;;0.30;0.28;;;21.40;37.00;;;;;;5055633;28;20403;-62
2023/02/20 04:59:23;;;;;;;0.20;0.20;;;21.40;37.00;;;;;;5055753;28;20083;-62
2023/02/20 05:01:51;;;;;;;0.30;0.30;;;21.40;37.00;;;;;;5055825;28;20471;-62
2023/02/20 05:04:20;;;;;;;0.30;0.20;;;21.40;37.00;;;;;;5055501;28;20088;-62
2023/02/20 05:06:53;;;;;;;0.45;0.45;;;21.40;37.00;;;;;;5055519;28;20684;-62
2023/02/20 05:09:21;;;;;;;0.20;0.20;;;21.40;37.60;;;;;;5055402;28;20088;-62
2023/02/20 05:11:48;;;;;;;0.10;0.10;;;21.40;37.00;;;;;;5055474;28;20084;-62
2023/02/20 05:14:16;;;;;;;0.28;0.28;;;21.40;37.00;;;;;;5043366;28;20053;-62
2023/02/20 05:16:44;;;;;;;0.63;0.63;;;21.40;37.00;;;;;;5047918;28;20136;-62
2023/02/20 05:19:13;;;;;;;0.55;0.38;;;21.40;37.00;;;;;;5045289;28;20045;-62
2023/02/20 05:24:31;;;;;;;0.60;0.47;;;21.40;36.90;;;;;;5035124;28;20057;-62
2023/02/20 05:26:58;;;;;;;1.08;0.32;;;21.40;36.90;;;;;;5051377;28;20071;-62
2023/02/20 05:29:25;;;;;;;0.38;0.30;;;21.40;36.90;;;;;;5051899;28;20061;-62
2023/02/20 05:31:52;;;;;;;1.25;0.50;;;21.40;36.90;;;;;;5053183;28;20401;-61
2023/02/20 05:34:21;;;;;;;0.60;0.40;;;21.40;36.90;;;;;;5053720;28;20083;-62
2023/02/20 05:36:48;;;;;;;0.50;0.50;;;21.40;36.90;;;;;;5049371;28;20103;-62
2023/02/20 05:39:15;;;;;;;0.75;0.63;;;21.40;36.70;;;;;;5053739;28;20512;-63
2023/02/20 05:41:43;;;;;;;1.17;0.70;;;21.40;36.50;;;;;;5049989;28;20057;-62
2023/02/20 05:44:10;;;;;;;1.15;0.88;;;21.30;36.40;;;;;;5054024;28;20124;-62
2023/02/20 05:46:41;;;;;;;0.82;0.63;;;21.30;36.30;;;;;;5047960;28;20120;-62
2023/02/20 05:49:10;;;;;;;0.70;0.70;;;21.30;36.30;;;;;;5034738;28;20049;-62
2023/02/20 05:51:37;;;;;;;0.90;0.90;;;21.30;36.20;;;;;;5034919;28;20053;-62
2023/02/20 05:54:05;;;;;;;1.13;0.93;;;21.30;36.20;;;;;;5034526;28;20045;-62
2023/02/20 05:56:32;;;;;;;1.15;1.00;;;21.20;36.10;;;;;;5034483;28;20132;-62
2023/02/20 05:59:00;;;;;;;0.95;0.82;;;21.30;36.10;;;;;;5034028;28;20080;-62
2023/02/20 06:01:31;;;;;;;1.45;1.35;;;21.30;36.10;;;;;;5034571;28;20055;-62
2023/02/20 06:04:00;;;;;;;1.27;1.08;;;21.30;36.00;;;;;;5033322;28;20053;-62
2023/02/20 06:06:39;;;;;;;1.98;1.23;;;21.30;36.00;;;;;;5035094;28;20041;-62
2023/02/20 06:09:09;;;;;;;1.40;1.30;;;21.30;35.90;;;;;;5051054;28;20049;-62
2023/02/20 06:11:40;;;;;;;2.75;1.08;;;21.30;35.80;;;;;;5046638;28;20053;-59
2023/02/20 06:14:08;;;;;;;1.30;1.20;;;21.40;35.80;;;;;;5039257;28;20468;-61
2023/02/20 06:16:35;;;;;;;1.42;1.33;;;21.40;35.80;;;;;;5046519;28;20064;-62
2023/02/20 06:19:04;;;;;;;2.17;1.30;;;21.50;35.80;;;;;;5050526;28;20505;-61
2023/02/20 06:21:34;;;;;;;1.10;1.00;;;21.50;36.30;;;;;;5046041;28;20085;-62
2023/02/20 06:24:02;;;;;;;4.15;1.60;;;21.60;36.80;;;;;;5041614;28;20136;-61
2023/02/20 06:26:29;;;;;;;1.70;1.23;;;21.60;36.90;;;;;;5050813;28;20045;-61
2023/02/20 06:28:57;;;;;;;4.85;1.40;;;21.70;36.90;;;;;;5041089;28;20424;-60
2023/02/20 06:31:27;;;;;;;3.67;1.58;;;21.70;37.10;;;;;;5050362;28;20140;-63
2023/02/20 06:33:54;;;;;;;;;;;21.70;37.80;;;;;;5046205;28;20052;-61
2023/02/20 06:36:29;;;;;;;2.88;1.85;;;21.80;37.20;;;;;;5049125;28;19921;-61
2023/02/20 06:38:57;;;;;;;5.95;2.28;;;21.80;37.60;;;;;;5047366;28;20049;-62
2023/02/20 06:41:24;;;;;;;3.33;1.75;;;21.90;37.60;;;;;;5044111;28;20481;-62
2023/02/20 06:43:52;;;;;;;4.35;2.22;;;21.90;37.70;;;;;;5045774;28;20044;-64
2023/02/20 06:46:21;;;;;;;3.22;2.03;;;22.00;37.90;;;;;;5043233;28;20076;-62
2023/02/20 06:48:52;;;;;;;5.30;2.97;;;22.00;37.70;;;;;;5044111;28;20091;-62
2023/02/20 06:51:21;;;;;;;4.35;2.60;;;22.10;38.50;;;;;;5043631;28;20088;-64
2023/02/20 06:53:48;;;;;;;2.53;2.08;;;22.10;38.70;;;;;;5042254;28;20052;-62
2023/02/20 06:56:20;;;;;;;3.40;2.30;;;22.20;38.90;;;;;;5041437;28;20091;-64
2023/02/20 06:58:50;;;;;;;12.35;2.80;;;22.20;38.50;;;;;;5040603;28;20042;-60
2023/02/20 07:01:19;;;;;;;5.05;3.03;;;22.30;38.40;;;;;;5043513;28;20139;-62
2023/02/20 07:03:52;;;;;;;3.20;2.22;;;22.40;38.60;;;;;;5043943;28;20045;-62
2023/02/20 07:06:19;;;;;;;5.25;2.38;;;22.40;38.70;;;;;;5045320;28;20125;-62
2023/02/20 07:08:47;;;;;;;2.65;2.22;;;22.50;38.60;;;;;;5039147;28;20116;-62
2023/02/20 07:11:17;;;;;;;5.25;2.55;;;22.50;38.80;;;;;;5044294;28;20113;-61
2023/02/20 07:13:45;;;;;;;5.65;2.63;;;22.60;39.10;;;;;;5043954;28;20049;-60
2023/02/20 07:16:13;;;;;;;3.35;2.55;;;22.70;38.40;;;;;;5045060;28;20055;-61
2023/02/20 07:18:41;;;;;;;3.92;2.22;;;22.70;38.60;;;;;;5041797;28;20080;-62
2023/02/20 07:21:08;;;;;;;2.97;2.28;;;22.70;38.20;;;;;;5039910;28;20056;-61
2023/02/20 07:23:35;;;;;;;3.33;2.15;;;22.80;38.00;;;;;;5043810;28;20516;-62
2023/02/20 07:26:02;;;;;;;4.43;2.38;;;22.90;37.90;;;;;;5043974;28;20059;-62
2023/02/20 07:28:29;;;;;;;2.67;2.30;;;22.90;38.20;;;;;;5046267;28;20073;-61
2023/02/20 07:30:56;;;;;;;4.40;2.58;;;23.00;38.20;;;;;;5047516;28;20276;-63
2023/02/20 07:33:24;;;;;;;5.18;2.40;;;23.00;37.90;;;;;;5047084;28;20120;-62
2023/02/20 07:35:51;;;;;;;4.03;2.03;;;23.00;37.80;;;;;;5048890;28;20124;-62
2023/02/20 07:38:18;;;;;;;4.03;2.03;;;23.10;37.70;;;;;;5042294;28;20043;-62
2023/02/20 07:40:46;;;;;;;3.40;2.17;;;23.20;37.00;;;;;;5046751;28;20128;-62
2023/02/20 07:43:13;;;;;;;2.05;1.83;;;23.10;37.60;;;;;;5047218;28;20481;-64
2023/02/20 07:45:43;;;;;;;2.53;1.88;;;23.20;37.80;;;;;;5043322;28;20084;-61
2023/02/20 07:48:10;;;;;;;3.08;2.00;;;23.20;37.50;;;;;;5045459;28;20045;-62
2023/02/20 07:50:38;;;;;;;3.83;1.73;;;23.30;37.60;;;;;;5044696;28;20045;-61
2023/02/20 07:53:05;;;;;;;5.50;2.08;;;23.30;37.10;;;;;;5045958;28;20056;-61
2023/02/20 07:55:32;;;;;;;3.45;2.10;;;23.30;37.50;;;;;;5050823;28;20052;-60
2023/02/20 07:58:00;;;;;;;2.67;2.08;;;23.30;37.50;;;;;;5045779;28;20045;-62
2023/02/20 08:00:27;;;;;;;3.80;2.13;;;23.30;37.40;;;;;;5044959;28;20144;-61
2023/02/20 08:02:54;;;;;;;1.60;1.50;;;23.40;37.40;;;;;;5041369;28;20159;-61
2023/02/20 08:05:22;;;;;;;2.10;1.90;;;23.40;37.10;;;;;;5046229;28;20055;-61
2023/02/20 08:07:50;;;;;;;2.78;2.08;;;23.40;36.80;;;;;;5042725;28;20041;-61
2023/02/20 08:10:20;;;;;;;3.30;1.77;;;23.40;36.90;;;;;;5045521;28;20049;-62
2023/02/20 08:12:49;;;;;;;1.92;1.42;;;23.50;36.90;;;;;;5049731;28;20069;-61
2023/02/20 08:15:18;;;;;;;8.38;1.90;;;23.50;36.60;;;;;;5044766;28;20053;-62
2023/02/20 08:17:45;;;;;;;6.05;1.60;;;23.50;37.00;;;;;;5044856;28;20177;-63
2023/02/20 08:20:15;;;;;;;3.88;1.60;;;23.60;36.90;;;;;;5051166;28;20488;-61
2023/02/20 08:22:44;;;;;;;2.28;1.48;;;23.60;37.00;;;;;;5049734;28;20132;-63
2023/02/20 08:25:11;;;;;;;4.65;1.60;;;23.60;37.00;;;;;;5049315;28;20503;-62
2023/02/20 08:27:47;;;;;;;4.15;1.88;;;23.60;36.70;;;;;;5050094;28;20145;-62
2023/02/20 08:30:22;;;;;;;6.22;1.92;;;23.70;36.70;;;;;;5049404;28;20102;-61
2023/02/20 08:32:50;;;;;;;3.47;1.70;;;23.70;36.70;;;;;;5046884;28;20049;-62
2023/02/20 08:35:18;;;;;;;5.35;1.75;;;23.70;36.70;;;;;;5048811;28;20072;-62
2023/02/20 08:37:46;;;;;;;3.95;1.67;;;23.70;36.70;;;;;;5042603;28;20276;-65
2023/02/20 08:40:13;;;;;;;2.35;1.42;;;23.70;36.60;;;;;;5047305;28;20047;-62
2023/02/20 08:42:41;;;;;;;3.85;1.67;;;23.80;36.20;;;;;;5044931;28;20089;-63
2023/02/20 08:45:08;;;;;;;5.18;1.60;;;23.80;36.40;;;;;;5048228;28;20051;-65
2023/02/20 08:47:35;;;;;;;4.28;1.30;;;23.80;36.00;;;;;;5048090;28;20053;-65
2023/02/20 08:50:04;;;;;;;3.13;1.45;;;23.80;35.90;;;;;;5047234;28;20141;-64
2023/02/20 08:52:31;;;;;;;2.60;1.80;;;23.90;36.10;;;;;;5041719;28;20136;-63
2023/02/20 08:54:58;;;;;;;2.35;1.50;;;23.90;36.60;;;;;;5042617;28;20045;-62
2023/02/20 08:57:25;;;;;;;2.75;1.50;;;23.90;36.20;;;;;;5043954;28;20152;-62
2023/02/20 08:59:52;;;;;;;1.88;1.17;;;23.90;36.00;;;;;;5043136;28;20127;-61
2023/02/20 09:02:23;;;;;;;6.60;1.50;;;23.90;36.20;;;;;;5042890;28;20124;-61
2023/02/20 09:04:50;;;;;;;2.30;1.05;;;23.90;36.50;;;;;;5041571;28;20578;-62
2023/02/20 09:07:17;;;;;;;1.55;1.45;;;24.00;35.90;;;;;;5043178;28;20049;-60
2023/02/20 09:09:45;;;;;;;3.58;0.95;;;24.00;35.70;;;;;;5042777;28;20168;-61
2023/02/20 09:12:13;;;;;;;2.78;1.33;;;24.10;35.90;;;;;;5045527;28;20049;-60
2023/02/20 09:14:40;;;;;;;1.20;1.10;;;24.10;36.00;;;;;;5038995;28;20063;-61
2023/02/20 09:17:07;;;;;;;3.15;0.93;;;24.10;35.90;;;;;;5039920;28;20059;-62
2023/02/20 09:19:34;;;;;;;3.33;1.30;;;24.20;36.40;;;;;;5039545;28;21585;-62
2023/02/20 09:22:02;;;;;;;3.90;0.70;;;24.20;36.20;;;;;;5037992;28;20053;-60
2023/02/20 09:24:32;;;;;;;3.45;0.88;;;24.30;36.00;;;;;;5045225;28;20076;-62
2023/02/20 09:27:01;;;;;;;3.67;1.20;;;24.30;34.90;;;;;;5048970;28;20071;-62
2023/02/20 09:29:28;;;;;;;3.10;1.08;;;24.30;35.30;;;;;;5045245;28;20049;-62
2023/02/20 09:31:56;;;;;;;3.30;1.20;;;24.30;34.90;;;;;;5043021;28;20131;-64
2023/02/20 09:34:23;;;;;;;3.20;1.10;;;24.40;35.80;;;;;;5045937;28;20051;-64
2023/02/20 09:36:50;;;;;;;1.70;0.98;;;24.40;36.70;;;;;;5044629;28;20049;-63
2023/02/20 09:39:19;;;;;;;5.28;1.23;;;24.50;36.80;;;;;;5046424;28;21297;-63
2023/02/20 09:42:08;;;;;;;0.88;0.73;;;24.50;37.00;;;;;;5043157;28;20059;-63
2023/02/20 09:44:55;;;;;;;1.15;0.93;;;24.50;37.30;;;;;;5044081;28;20056;-63
2023/02/20 09:47:53;;;;;;;7.18;1.45;;;24.50;37.20;;;;;;5044192;28;20136;-60
2023/02/20 09:50:50;;;;;;;2.20;1.65;;;24.50;37.30;;;;;;5042707;28;20136;-61
2023/02/20 09:53:54;;;;;;;3.65;1.75;;;24.60;37.70;;;;;;5045163;28;20064;-60
2023/02/20 09:56:33;;;;;;;7.35;2.20;;;24.60;37.50;;;;;;5042346;28;20563;-60
2023/02/20 09:59:23;;;;;;;3.42;1.75;;;24.60;36.90;;;;;;5042086;28;20049;-61
2023/02/20 10:02:03;;;;;;;4.95;2.30;;;24.60;36.70;;;;;;5045481;28;20049;-62
2023/02/20 10:04:37;;;;;;;6.30;3.22;;;24.70;35.60;;;;;;5044362;28;20132;-61
2023/02/20 10:07:26;;;;;;;7.78;2.40;;;24.70;35.80;;;;;;5045809;28;20065;-62
2023/02/20 10:09:56;;;;;;;5.68;2.75;;;24.70;36.10;;;;;;5044312;28;20041;-60
2023/02/20 10:12:41;;;;;;;7.05;3.38;;;24.70;35.90;;;;;;5040733;28;20052;-60
2023/02/20 10:15:39;;;;;;;6.95;2.80;;;24.70;35.40;;;;;;5042480;28;20071;-61
2023/02/20 10:18:39;;;;;;;6.28;2.92;;;24.70;35.40;;;;;;5046204;28;20049;-60
2023/02/20 10:21:23;;;;;;;10.48;4.50;;;24.70;35.10;;;;;;5043138;28;20416;-62
2023/02/20 10:23:54;;;;;;;8.15;3.92;;;24.70;34.70;;;;;;5044130;28;20098;-60
2023/02/20 10:26:36;;;;;;;10.10;4.18;;;24.70;34.50;;;;;;5040074;28;20072;-61
2023/02/20 10:29:24;;;;;;;9.38;4.45;;;24.80;34.30;;;;;;5042517;28;20462;-61
2023/02/20 10:32:20;;;;;;;6.47;3.70;;;24.80;34.30;;;;;;5040391;28;20057;-63
2023/02/20 10:35:13;;;;;;;13.35;4.68;;;24.80;34.20;;;;;;5047008;28;20049;-60
2023/02/20 10:37:45;;;;;;;9.18;3.88;;;24.90;33.80;;;;;;5041675;28;20056;-60
2023/02/20 10:40:33;;;;;;;7.70;3.88;;;24.90;33.70;;;;;;5049636;28;20056;-61
2023/02/20 10:43:27;;;;;;;8.57;3.72;;;24.90;33.70;;;;;;5041710;28;20160;-61
2023/02/20 10:46:22;;;;;;;10.00;3.92;;;24.90;33.40;;;;;;5042692;28;20080;-60
2023/02/20 10:48:52;;;;;;;7.00;3.30;;;24.90;33.40;;;;;;5038356;28;20136;-60
2023/02/20 10:51:32;;;;;;;7.28;3.10;;;25.00;33.40;;;;;;5032153;28;20067;-63
2023/02/20 10:54:09;;;;;;;9.65;3.30;;;25.00;33.40;;;;;;5040411;28;20048;-61
2023/02/20 10:56:58;;;;;;;6.65;3.13;;;25.00;33.40;;;;;;5043871;28;20051;-62
2023/02/20 10:59:43;;;;;;;5.67;2.90;;;25.00;33.40;;;;;;5045496;28;20095;-60
2023/02/20 11:02:21;;;;;;;9.25;3.20;;;25.10;33.40;;;;;;5039148;28;20049;-62
2023/02/20 11:04:56;;;;;;;5.65;3.50;;;25.10;33.10;;;;;;5044954;28;20052;-61
2023/02/20 11:07:25;;;;;;;5.35;2.70;;;25.10;32.90;;;;;;5044410;28;20420;-63
2023/02/20 11:09:52;;;;;;;6.38;2.80;;;25.10;32.80;;;;;;5044970;28;20052;-63
2023/02/20 11:12:39;;;;;;;8.73;2.75;;;25.10;32.70;;;;;;5046427;28;20053;-62
2023/02/20 11:15:11;;;;;;;6.78;2.55;;;25.20;32.70;;;;;;5045493;28;20132;-61
2023/02/20 11:17:39;;;;;;;3.67;1.88;;;25.20;32.60;;;;;;5039514;28;20171;-64
2023/02/20 11:20:40;;;;;;;6.90;2.67;;;25.20;32.50;;;;;;5048973;28;20040;-62
2023/02/20 11:23:09;;;;;;;4.15;2.28;;;25.20;32.40;;;;;;5043032;28;20045;-62
2023/02/20 11:25:38;;;;;;;4.38;2.28;;;25.20;32.30;;;;;;5040121;28;20048;-60
2023/02/20 11:28:23;;;;;;;3.45;2.33;;;25.20;32.30;;;;;;5043904;28;20045;-61
2023/02/20 11:31:01;;;;;;;3.67;2.15;;;25.30;32.30;;;;;;5047468;28;20497;-61
2023/02/20 11:33:36;;;;;;;5.10;2.33;;;25.30;32.30;;;;;;5042337;28;20053;-61
2023/02/20 11:36:14;;;;;;;3.30;1.77;;;25.30;32.20;;;;;;5043858;28;20056;-62
2023/02/20 11:38:48;;;;;;;5.75;2.28;;;25.40;32.30;;;;;;5036998;28;20048;-59
2023/02/20 11:41:35;;;;;;;3.85;2.20;;;25.40;32.20;;;;;;5044955;28;20500;-60
2023/02/20 11:44:20;;;;;;;2.85;1.77;;;25.30;32.30;;;;;;5043918;28;20044;-60
2023/02/20 11:47:07;;;;;;;2.42;1.80;;;25.40;32.30;;;;;;5044289;28;20095;-59
2023/02/20 11:49:35;;;;;;;2.95;1.20;;;25.30;32.10;;;;;;5045624;28;20041;-60
2023/02/20 11:52:13;;;;;;;2.28;1.27;;;25.30;32.20;;;;;;5044173;28;20397;-59
2023/02/20 11:54:41;;;;;;;2.83;1.63;;;25.30;32.10;;;;;;5044712;28;20052;-61
2023/02/20 11:57:29;;;;;;;2.03;1.33;;;25.30;32.20;;;;;;5046445;28;20540;-64
2023/02/20 12:00:18;;;;;;;2.95;1.55;;;25.30;32.30;;;;;;5041991;28;20141;-64
2023/02/20 12:03:10;;;;;;;6.25;1.25;;;25.40;32.20;;;;;;5044183;28;20053;-63
2023/02/20 12:05:45;;;;;;;5.22;1.50;;;25.30;32.00;;;;;;5045642;28;20049;-62
2023/02/20 12:08:46;;;;;;;1.55;0.95;;;25.40;32.00;;;;;;5044047;28;20045;-61
2023/02/20 12:11:21;;;;;;;2.10;1.15;;;25.40;32.00;;;;;;5046464;28;20132;-60
2023/02/20 12:13:51;;;;;;;3.08;1.10;;;25.40;32.00;;;;;;5045036;28;20405;-63
2023/02/20 12:16:41;;;;;;;1.45;0.80;;;25.40;32.00;;;;;;5028602;28;20052;-61
2023/02/20 12:19:33;;;;;;;1.83;1.52;;;25.40;32.00;;;;;;5046236;28;20080;-61
2023/02/20 12:22:33;;;;;;;0.80;0.80;;;25.40;31.40;;;;;;5046281;28;20063;-61
2023/02/20 12:25:20;;;;;;;1.15;0.95;;;25.30;31.50;;;;;;5030920;28;20523;-62
2023/02/20 12:28:14;;;;;;;1.08;0.88;;;25.30;31.70;;;;;;5043601;28;20057;-63
2023/02/20 12:31:04;;;;;;;2.90;1.10;;;25.30;32.10;;;;;;5040059;28;20049;-64
2023/02/20 12:34:03;;;;;;;1.90;1.17;;;25.30;32.30;;;;;;5042743;28;20060;-65
2023/02/20 12:36:39;;;;;;;1.20;0.87;;;25.30;32.60;;;;;;5040387;28;20045;-63
2023/02/20 12:39:30;;;;;;;1.33;1.13;;;25.40;32.70;;;;;;5041321;28;20305;-66
2023/02/20 12:42:22;;;;;;;1.88;1.35;;;25.40;32.80;;;;;;5046450;28;20048;-63
2023/02/20 12:45:26;;;;;;;3.65;1.08;;;25.40;32.70;;;;;;5044451;28;20059;-62
2023/02/20 12:48:15;;;;;;;3.28;1.17;;;25.40;32.50;;;;;;5045288;28;20088;-62
2023/02/20 12:51:22;;;;;;;1.65;1.52;;;25.50;32.80;;;;;;5045570;28;20045;-64
2023/02/20 12:54:29;;;;;;;3.67;1.10;;;25.50;32.90;;;;;;5046476;28;20528;-62
2023/02/20 12:57:22;;;;;;;3.13;1.17;;;25.50;32.80;;;;;;5025425;28;20503;-59
2023/02/20 13:00:17;;;;;;;5.75;1.33;;;25.50;32.80;;;;;;5041124;28;20446;-60
2023/02/20 13:02:48;;;;;;;2.72;1.52;;;25.60;32.70;;;;;;5046179;28;20140;-61
2023/02/20 13:05:22;;;;;;;12.15;1.58;;;25.70;32.70;;;;;;5048593;28;20044;-61
2023/02/20 13:07:56;;;;;;;3.05;1.40;;;25.60;32.60;;;;;;5049343;28;20048;-61
2023/02/20 13:10:38;;;;;;;1.92;1.52;;;25.70;32.50;;;;;;5046486;28;20051;-60
2023/02/20 13:13:10;;;;;;;1.30;1.17;;;25.70;32.50;;;;;;5044256;28;20044;-62
2023/02/20 13:16:05;;;;;;;2.60;1.27;;;25.70;32.30;;;;;;5048132;28;20045;-62
2023/02/20 13:18:42;;;;;;;1.52;1.40;;;25.70;32.10;;;;;;5045992;28;20056;-61
2023/02/20 13:21:13;;;;;;;1.15;1.15;;;25.70;31.80;;;;;;5045213;28;20120;-62
2023/02/20 13:23:41;;;;;;;4.38;1.30;;;25.70;31.60;;;;;;5045153;28;20893;-61
2023/02/20 13:26:48;;;;;;;2.58;1.20;;;25.70;31.50;;;;;;5047078;28;20096;-60
2023/02/20 13:29:22;;;;;;;3.88;1.25;;;25.70;31.40;;;;;;5043687;28;20133;-60
2023/02/20 13:32:01;;;;;;;8.95;1.75;;;25.80;31.40;;;;;;5045434;28;20133;-61
2023/02/20 13:34:36;;;;;;;2.72;1.60;;;25.80;31.40;;;;;;5046416;28;20052;-61
2023/02/20 13:37:24;;;;;;;1.90;1.63;;;25.80;31.40;;;;;;5045009;28;20080;-61
2023/02/20 13:39:51;;;;;;;2.35;0.90;;;25.90;31.30;;;;;;5046212;28;21055;-61
2023/02/20 13:42:28;;;;;;;5.13;1.58;;;25.80;31.30;;;;;;5045943;28;20053;-62